Time;durP1;ratioP1;P1;durP2;ratioP2;P2;SDS_P1;SDS_P2;PMS_P1;PMS_P2;Temp;Humidity;BMP_temperature;BMP_pressure;BME280_temperature;BME280_humidity;BME280_pressure;Samples;Min_cycle;Max_cycle;Signal;HPM_P1;HPM_P2
2023/09/21 00:00:28;;;;;;;2.00;1.80;;;19.80;99.90;;;;;;5048170;28;20422;-74
2023/09/21 00:02:55;;;;;;;2.67;2.00;;;19.90;99.90;;;;;;5048044;28;20402;-74
2023/09/21 00:05:24;;;;;;;2.83;1.53;;;19.80;99.90;;;;;;5047918;28;20199;-75
2023/09/21 00:07:50;;;;;;;2.50;1.70;;;19.90;99.90;;;;;;5048098;28;20435;-75
2023/09/21 00:10:18;;;;;;;2.20;1.33;;;19.90;99.90;;;;;;5031387;28;20421;-75
2023/09/21 00:12:44;;;;;;;2.63;1.80;;;19.90;99.90;;;;;;5047854;28;20429;-75
2023/09/21 00:15:12;;;;;;;2.80;1.53;;;19.80;99.90;;;;;;5048863;28;20434;-75
2023/09/21 00:17:39;;;;;;;9.43;1.90;;;19.80;99.90;;;;;;5048834;28;20223;-74
2023/09/21 00:20:21;;;;;;;2.10;1.77;;;19.70;99.90;;;;;;5047329;28;20415;-74
2023/09/21 00:22:47;;;;;;;2.20;1.90;;;19.70;99.90;;;;;;5048362;28;20419;-74
2023/09/21 00:25:15;;;;;;;2.40;1.80;;;19.60;99.90;;;;;;5046903;28;20437;-74
2023/09/21 00:27:41;;;;;;;4.40;1.97;;;19.40;99.90;;;;;;5052425;28;20189;-74
2023/09/21 00:30:07;;;;;;;2.30;1.70;;;19.30;99.90;;;;;;5052416;28;21089;-74
2023/09/21 00:32:39;;;;;;;2.30;1.60;;;19.30;99.90;;;;;;5034886;28;20283;-74
2023/09/21 00:35:10;;;;;;;4.67;1.50;;;19.30;99.90;;;;;;5052353;28;20469;-74
2023/09/21 00:37:39;;;;;;;3.50;1.70;;;19.20;99.90;;;;;;5052371;28;20446;-74
2023/09/21 00:40:17;;;;;;;3.47;1.73;;;19.20;99.90;;;;;;5052302;28;20517;-74
2023/09/21 00:42:43;;;;;;;1.97;1.50;;;19.20;99.90;;;;;;5052274;28;20394;-74
2023/09/21 00:45:08;;;;;;;2.13;1.50;;;19.20;99.90;;;;;;5052487;28;20443;-74
2023/09/21 00:47:42;;;;;;;3.10;1.90;;;19.30;99.90;;;;;;5052603;28;20494;-74
2023/09/21 00:50:12;;;;;;;2.00;1.80;;;19.30;99.90;;;;;;5051978;28;20202;-74
2023/09/21 00:52:43;;;;;;;1.80;1.50;;;19.30;99.90;;;;;;5034003;28;20426;-74
2023/09/21 00:55:12;;;;;;;3.30;1.70;;;19.40;99.90;;;;;;5052001;28;20523;-74
2023/09/21 00:57:42;;;;;;;1.63;1.27;;;19.30;99.90;;;;;;5050172;28;20480;-74
2023/09/21 01:00:12;;;;;;;1.37;1.27;;;19.30;99.90;;;;;;5050511;28;20462;-74
2023/09/21 01:02:39;;;;;;;1.83;1.63;;;19.40;99.90;;;;;;5051773;28;20798;-74
2023/09/21 01:05:08;;;;;;;1.97;1.80;;;19.40;99.90;;;;;;5050297;28;20434;-74
2023/09/21 01:07:36;;;;;;;1.57;1.30;;;19.40;99.90;;;;;;5051572;28;20961;-74
2023/09/21 01:10:06;;;;;;;1.90;1.53;;;19.40;99.90;;;;;;5051656;28;20892;-74
2023/09/21 01:12:34;;;;;;;5.10;1.90;;;19.40;99.90;;;;;;5051902;28;20863;-74
2023/09/21 01:15:11;;;;;;;2.40;1.90;;;19.40;99.90;;;;;;5052097;28;20428;-74
2023/09/21 01:17:44;;;;;;;5.93;2.07;;;18.80;99.90;;;;;;5052079;28;21017;-74
2023/09/21 01:20:27;;;;;;;2.33;2.03;;;18.40;99.90;;;;;;5050652;28;20426;-74
2023/09/21 01:23:19;;;;;;;3.87;2.20;;;18.20;99.90;;;;;;5052178;28;20409;-74
2023/09/21 01:25:50;;;;;;;6.40;2.10;;;18.10;99.90;;;;;;5051891;28;20954;-74
2023/09/21 01:28:19;;;;;;;7.23;1.80;;;17.90;99.90;;;;;;5050473;28;20951;-75
2023/09/21 01:30:45;;;;;;;3.00;1.80;;;17.80;99.90;;;;;;5052101;28;20523;-74
2023/09/21 01:33:12;;;;;;;4.27;2.17;;;17.70;99.90;;;;;;5051801;28;20424;-74
2023/09/21 01:35:38;;;;;;;3.80;1.70;;;17.70;99.90;;;;;;5050354;28;20452;-74
2023/09/21 01:38:06;;;;;;;5.27;2.00;;;17.50;99.90;;;;;;5050713;28;20455;-74
2023/09/21 01:40:39;;;;;;;2.40;2.10;;;17.40;99.90;;;;;;5051356;28;20512;-74
2023/09/21 01:43:10;;;;;;;2.97;2.10;;;17.30;99.90;;;;;;5051365;28;20472;-74
2023/09/21 01:45:39;;;;;;;3.10;1.83;;;17.20;99.90;;;;;;5049367;28;20446;-74
2023/09/21 01:48:08;;;;;;;2.37;1.83;;;17.20;99.90;;;;;;5049239;28;20441;-74
2023/09/21 01:50:42;;;;;;;5.53;2.37;;;17.10;99.90;;;;;;5049270;28;20954;-74
2023/09/21 01:53:09;;;;;;;4.33;2.60;;;17.00;99.90;;;;;;5050699;28;20474;-74
2023/09/21 01:55:35;;;;;;;6.97;2.60;;;16.90;99.90;;;;;;5050118;28;20452;-75
2023/09/21 01:58:01;;;;;;;3.00;2.40;;;16.90;99.90;;;;;;5050448;28;20473;-74
2023/09/21 02:00:28;;;;;;;2.47;2.00;;;16.80;99.90;;;;;;5050397;28;20916;-74
2023/09/21 02:02:55;;;;;;;2.50;1.87;;;16.80;99.90;;;;;;5050367;28;20421;-74
2023/09/21 02:05:21;;;;;;;2.90;2.10;;;16.90;99.90;;;;;;5050466;28;20955;-74
2023/09/21 02:07:50;;;;;;;3.00;2.20;;;16.90;99.90;;;;;;5050503;28;20429;-74
2023/09/21 02:10:15;;;;;;;5.43;2.43;;;17.00;99.90;;;;;;5050466;28;20499;-74
2023/09/21 02:12:54;;;;;;;2.30;1.70;;;17.00;99.90;;;;;;5050483;28;21002;-74
2023/09/21 02:15:19;;;;;;;4.37;2.40;;;17.00;99.90;;;;;;5050187;28;20742;-74
2023/09/21 02:17:45;;;;;;;6.97;2.17;;;16.90;99.90;;;;;;5048932;28;20510;-74
2023/09/21 02:20:14;;;;;;;2.43;2.13;;;17.00;99.90;;;;;;5050484;28;20208;-74
2023/09/21 02:22:47;;;;;;;3.90;1.67;;;16.90;99.90;;;;;;5050129;28;20184;-74
2023/09/21 02:25:13;;;;;;;2.90;2.03;;;16.90;99.90;;;;;;5048749;28;20441;-74
2023/09/21 02:27:40;;;;;;;3.77;1.80;;;16.90;99.90;;;;;;5048590;28;20442;-74
2023/09/21 02:30:11;;;;;;;4.57;1.83;;;16.90;99.90;;;;;;5048606;28;20516;-74
2023/09/21 02:32:38;;;;;;;2.70;1.73;;;16.90;99.90;;;;;;5050231;28;20437;-74
2023/09/21 02:35:07;;;;;;;4.20;2.60;;;16.90;99.90;;;;;;5049803;28;20553;-74
2023/09/21 02:37:34;;;;;;;3.93;2.07;;;16.90;99.90;;;;;;5032238;28;20573;-74
2023/09/21 02:40:00;;;;;;;2.07;1.40;;;16.90;99.90;;;;;;5049983;28;21406;-74
2023/09/21 02:42:26;;;;;;;5.27;1.90;;;16.80;99.90;;;;;;5050124;28;20552;-74
2023/09/21 02:44:55;;;;;;;6.70;2.20;;;16.80;99.90;;;;;;5049655;28;20432;-73
2023/09/21 02:47:21;;;;;;;4.73;2.13;;;16.80;99.90;;;;;;5048331;28;20174;-74
2023/09/21 02:49:47;;;;;;;2.70;1.90;;;16.80;99.90;;;;;;5049397;28;20939;-74
2023/09/21 02:52:13;;;;;;;3.50;2.03;;;16.80;99.90;;;;;;5049458;28;20425;-74
2023/09/21 02:54:39;;;;;;;3.90;2.17;;;16.90;99.90;;;;;;5049479;28;20211;-74
2023/09/21 02:57:05;;;;;;;4.80;2.30;;;16.90;99.90;;;;;;5047784;28;20206;-74
2023/09/21 02:59:31;;;;;;;3.40;2.13;;;16.90;99.90;;;;;;5049315;28;20480;-74
2023/09/21 03:01:57;;;;;;;1.90;1.50;;;16.90;99.90;;;;;;5049421;28;20421;-73
2023/09/21 03:04:22;;;;;;;2.33;2.10;;;16.90;99.90;;;;;;5031278;28;20640;-73
2023/09/21 03:06:48;;;;;;;3.20;2.20;;;16.90;99.90;;;;;;5049205;28;20179;-74
2023/09/21 03:09:14;;;;;;;3.73;1.87;;;16.90;99.90;;;;;;5049328;28;20179;-74
2023/09/21 03:11:40;;;;;;;2.63;1.90;;;16.90;99.90;;;;;;5049146;28;20186;-74
2023/09/21 03:14:06;;;;;;;2.23;1.93;;;16.90;99.90;;;;;;5049276;28;20455;-74
2023/09/21 03:16:32;;;;;;;2.57;2.13;;;16.80;99.90;;;;;;5048189;28;20601;-74
2023/09/21 03:18:58;;;;;;;3.00;2.30;;;16.80;99.90;;;;;;5049649;28;20464;-74
2023/09/21 03:21:24;;;;;;;3.27;2.13;;;16.90;99.90;;;;;;5048269;28;20414;-74
2023/09/21 03:23:52;;;;;;;4.47;2.20;;;16.80;99.90;;;;;;5049469;28;20643;-74
2023/09/21 03:26:19;;;;;;;6.03;2.10;;;16.90;99.90;;;;;;5049695;28;20455;-74
2023/09/21 03:28:47;;;;;;;2.07;1.90;;;16.80;99.90;;;;;;5031587;28;20445;-74
2023/09/21 03:31:13;;;;;;;3.50;1.67;;;16.80;99.90;;;;;;5049590;28;20418;-74
2023/09/21 03:33:38;;;;;;;3.93;1.83;;;16.90;99.90;;;;;;5049496;28;20429;-74
2023/09/21 03:36:04;;;;;;;4.40;2.10;;;16.80;99.90;;;;;;5048280;28;20460;-73
2023/09/21 03:38:30;;;;;;;2.43;2.00;;;16.80;99.90;;;;;;5031373;28;20242;-74
2023/09/21 03:40:56;;;;;;;2.30;1.77;;;16.80;99.90;;;;;;5049469;28;20208;-74
2023/09/21 03:43:23;;;;;;;4.03;2.33;;;16.80;99.90;;;;;;5047910;28;20191;-74
2023/09/21 03:45:49;;;;;;;1.93;1.63;;;16.80;99.90;;;;;;5049418;28;20424;-74
2023/09/21 03:48:15;;;;;;;3.40;2.00;;;16.90;99.90;;;;;;5047848;28;20449;-74
2023/09/21 03:50:43;;;;;;;1.50;1.33;;;16.90;99.90;;;;;;5048851;28;20175;-73
2023/09/21 03:53:09;;;;;;;3.10;2.20;;;16.90;99.90;;;;;;5049026;28;20484;-74
2023/09/21 03:55:36;;;;;;;5.70;2.13;;;16.90;99.90;;;;;;5049038;28;20459;-74
2023/09/21 03:58:03;;;;;;;4.40;2.00;;;16.90;99.90;;;;;;5048816;28;20475;-74
2023/09/21 04:03:06;;;;;;;5.20;2.30;;;16.90;99.90;;;;;;5048749;28;20409;-74
2023/09/21 04:05:34;;;;;;;4.63;2.17;;;16.80;99.90;;;;;;5048811;28;20433;-74
2023/09/21 04:07:59;;;;;;;3.00;2.30;;;16.80;99.90;;;;;;5047386;28;20474;-75
2023/09/21 04:10:26;;;;;;;5.17;2.27;;;16.90;99.90;;;;;;5047491;28;20458;-74
2023/09/21 04:12:55;;;;;;;3.30;2.63;;;16.90;99.90;;;;;;5048889;28;20313;-75
2023/09/21 04:15:24;;;;;;;6.67;2.57;;;16.90;99.90;;;;;;5048733;28;20794;-74
2023/09/21 04:17:51;;;;;;;3.30;2.43;;;16.80;99.90;;;;;;5048797;28;20422;-73
2023/09/21 04:20:18;;;;;;;2.90;2.30;;;16.80;99.90;;;;;;5047772;28;20427;-74
2023/09/21 04:22:45;;;;;;;3.17;2.33;;;16.80;99.90;;;;;;5049113;28;20902;-74
2023/09/21 04:25:13;;;;;;;2.83;2.37;;;16.70;99.90;;;;;;5048742;28;20431;-74
2023/09/21 04:27:42;;;;;;;4.43;2.10;;;16.60;99.90;;;;;;5047674;28;20818;-74
2023/09/21 04:30:09;;;;;;;3.30;2.87;;;16.60;99.90;;;;;;5049136;28;20413;-73
2023/09/21 04:32:38;;;;;;;9.60;2.20;;;16.50;99.90;;;;;;5047346;28;20438;-75
2023/09/21 04:35:05;;;;;;;2.23;2.03;;;16.50;99.90;;;;;;5047280;28;20452;-75
2023/09/21 04:37:35;;;;;;;4.93;2.60;;;16.50;99.90;;;;;;5045911;28;20433;-74
2023/09/21 04:40:11;;;;;;;7.07;2.37;;;16.50;99.90;;;;;;5045959;28;20470;-74
2023/09/21 04:42:40;;;;;;;5.37;2.13;;;16.60;99.90;;;;;;5045620;28;20410;-73
2023/09/21 04:45:08;;;;;;;3.23;2.00;;;16.60;99.90;;;;;;5046537;28;20469;-74
2023/09/21 04:47:38;;;;;;;4.90;2.60;;;16.60;99.90;;;;;;5046683;28;20426;-75
2023/09/21 04:50:05;;;;;;;2.77;2.10;;;16.60;99.90;;;;;;5045369;28;20462;-73
2023/09/21 04:52:31;;;;;;;6.63;2.10;;;16.60;99.90;;;;;;5047166;28;20408;-74
2023/09/21 04:54:57;;;;;;;3.40;2.70;;;16.60;99.90;;;;;;5028758;28;20540;-75
2023/09/21 04:57:23;;;;;;;3.13;2.03;;;16.60;99.90;;;;;;5029310;28;20567;-75
2023/09/21 04:59:48;;;;;;;4.20;2.80;;;16.60;99.90;;;;;;5029487;28;20583;-75
2023/09/21 05:02:14;;;;;;;5.30;2.30;;;16.50;99.90;;;;;;5046221;28;20201;-74
2023/09/21 05:04:40;;;;;;;3.67;2.57;;;16.50;99.90;;;;;;5045997;28;20207;-73
2023/09/21 05:07:06;;;;;;;3.53;2.40;;;16.40;99.90;;;;;;5047767;28;20229;-74
2023/09/21 05:09:32;;;;;;;4.13;2.60;;;16.40;99.90;;;;;;5045799;28;20585;-74
2023/09/21 05:11:58;;;;;;;5.73;2.63;;;16.40;99.90;;;;;;5046862;28;20431;-75
2023/09/21 05:14:25;;;;;;;7.50;2.43;;;16.30;99.90;;;;;;5049579;28;20473;-73
2023/09/21 05:16:52;;;;;;;3.47;2.60;;;16.20;99.90;;;;;;5049528;28;20566;-74
2023/09/21 05:19:18;;;;;;;3.60;2.80;;;16.20;99.90;;;;;;5050957;28;20936;-73
2023/09/21 05:21:44;;;;;;;4.00;2.50;;;16.20;99.90;;;;;;5051176;28;20938;-74
2023/09/21 05:24:10;;;;;;;6.30;2.13;;;16.30;99.90;;;;;;5032945;28;20480;-73
2023/09/21 05:26:36;;;;;;;6.37;2.20;;;16.30;99.90;;;;;;5049726;28;20508;-76
2023/09/21 05:29:02;;;;;;;3.23;2.10;;;16.20;99.90;;;;;;5051331;28;20556;-76
2023/09/21 05:31:28;;;;;;;10.17;2.17;;;16.20;99.90;;;;;;5033024;28;20632;-75
2023/09/21 05:33:54;;;;;;;2.53;2.10;;;16.30;99.90;;;;;;5050591;28;20830;-75
2023/09/21 05:36:21;;;;;;;2.17;2.00;;;16.40;99.90;;;;;;5050228;28;21080;-75
2023/09/21 05:38:46;;;;;;;6.43;2.97;;;16.50;99.90;;;;;;5048542;28;20509;-74
2023/09/21 05:41:12;;;;;;;4.93;3.27;;;16.60;99.90;;;;;;5048413;28;20417;-74
2023/09/21 05:43:39;;;;;;;6.87;3.00;;;16.70;99.90;;;;;;5048334;28;20257;-74
2023/09/21 05:46:04;;;;;;;6.13;3.10;;;16.60;99.90;;;;;;5049791;28;20186;-75
2023/09/21 05:48:31;;;;;;;6.23;2.60;;;16.70;99.90;;;;;;5048413;28;20434;-75
2023/09/21 05:50:56;;;;;;;3.23;2.40;;;16.60;99.90;;;;;;5032151;28;20722;-74
2023/09/21 05:53:22;;;;;;;14.87;3.10;;;16.50;99.90;;;;;;5048347;28;20425;-76
2023/09/21 05:55:48;;;;;;;3.60;2.43;;;16.60;99.90;;;;;;5050005;28;20209;-76
2023/09/21 05:58:13;;;;;;;2.80;2.47;;;16.70;99.90;;;;;;5049681;28;20241;-75
2023/09/21 06:00:40;;;;;;;7.43;2.40;;;16.80;99.90;;;;;;5049507;28;20665;-75
2023/09/21 06:03:06;;;;;;;3.33;2.20;;;17.00;99.90;;;;;;5048062;28;20187;-75
2023/09/21 06:05:32;;;;;;;6.40;2.23;;;17.10;99.90;;;;;;5049603;28;20533;-76
2023/09/21 06:07:58;;;;;;;2.13;1.93;;;17.20;99.90;;;;;;5049802;28;20505;-72
2023/09/21 06:10:24;;;;;;;3.43;3.13;;;17.30;99.90;;;;;;5049200;28;20187;-72
2023/09/21 06:20:04;;;;;;;6.20;2.80;;;17.30;99.90;;;;;;5053561;28;20947;-72
2023/09/21 06:22:31;;;;;;;3.60;2.60;;;17.30;99.90;;;;;;5049085;28;20796;-73
2023/09/21 06:24:57;;;;;;;5.10;2.40;;;17.40;99.90;;;;;;5046502;28;20436;-72
2023/09/21 06:27:23;;;;;;;3.00;2.70;;;17.50;99.90;;;;;;5048554;28;20476;-72
2023/09/21 06:29:49;;;;;;;3.70;2.17;;;17.50;99.90;;;;;;5048713;28;20454;-73
2023/09/21 06:32:15;;;;;;;4.80;2.57;;;17.50;99.90;;;;;;5048579;28;20421;-72
2023/09/21 06:34:45;;;;;;;8.10;2.43;;;17.60;99.90;;;;;;5030466;28;20453;-73
2023/09/21 06:37:14;;;;;;;4.30;2.43;;;17.60;99.90;;;;;;5046945;28;20427;-72
2023/09/21 06:39:40;;;;;;;3.67;2.60;;;17.50;99.90;;;;;;5048268;28;20465;-72
2023/09/21 06:42:06;;;;;;;5.10;2.60;;;17.50;99.90;;;;;;5046946;28;20414;-72
2023/09/21 06:44:32;;;;;;;5.17;2.67;;;17.40;99.90;;;;;;5046818;28;20915;-72
2023/09/21 06:46:58;;;;;;;5.67;2.60;;;17.50;99.90;;;;;;5048232;28;20419;-72
2023/09/21 06:49:26;;;;;;;5.07;2.80;;;17.50;99.90;;;;;;5046751;28;20275;-72
2023/09/21 06:51:54;;;;;;;4.73;2.40;;;17.60;99.90;;;;;;5046412;28;20188;-72
2023/09/21 06:54:19;;;;;;;8.53;3.13;;;17.60;99.90;;;;;;5048013;28;20884;-72
2023/09/21 06:56:45;;;;;;;3.80;2.60;;;17.70;99.90;;;;;;5048202;28;20535;-72
2023/09/21 06:59:10;;;;;;;2.70;2.40;;;17.80;99.90;;;;;;5047744;28;20704;-72
2023/09/21 07:01:36;;;;;;;2.70;2.20;;;17.80;99.90;;;;;;5048120;28;20256;-72
2023/09/21 07:04:03;;;;;;;3.57;2.77;;;17.90;99.90;;;;;;5047756;28;20205;-72
2023/09/21 07:06:29;;;;;;;3.10;2.20;;;17.90;99.90;;;;;;5046458;28;20612;-72
2023/09/21 07:08:57;;;;;;;4.87;2.47;;;18.00;99.90;;;;;;5047280;28;20442;-72
2023/09/21 07:11:23;;;;;;;2.60;2.20;;;18.10;99.90;;;;;;5048027;28;20804;-72
2023/09/21 07:13:51;;;;;;;3.30;2.50;;;18.30;99.90;;;;;;5047568;28;20440;-72
2023/09/21 07:16:18;;;;;;;7.00;2.67;;;18.40;99.90;;;;;;5029694;28;20192;-72
2023/09/21 07:18:44;;;;;;;4.50;2.10;;;18.60;99.90;;;;;;5045805;28;20464;-72
2023/09/21 07:21:10;;;;;;;4.03;2.77;;;18.70;99.90;;;;;;5047560;28;20414;-72
2023/09/21 07:23:35;;;;;;;6.10;2.70;;;18.90;99.90;;;;;;5047381;28;20189;-72
2023/09/21 07:26:01;;;;;;;4.20;2.37;;;19.00;99.90;;;;;;5047739;28;20184;-71
2023/09/21 07:28:29;;;;;;;3.90;2.20;;;19.10;99.90;;;;;;5047669;28;20187;-72
2023/09/21 07:30:54;;;;;;;2.30;2.10;;;19.20;99.90;;;;;;5046056;28;20217;-72
2023/09/21 07:33:21;;;;;;;3.83;2.30;;;19.30;99.90;;;;;;5046187;28;20522;-72
2023/09/21 07:35:47;;;;;;;5.67;2.37;;;19.40;99.90;;;;;;5047017;28;20261;-72
2023/09/21 07:38:13;;;;;;;2.27;1.90;;;19.50;99.90;;;;;;5047758;28;20496;-72
2023/09/21 07:40:39;;;;;;;2.40;2.03;;;19.50;99.90;;;;;;5047686;28;20417;-72
2023/09/21 07:43:06;;;;;;;6.17;1.93;;;19.60;99.90;;;;;;5046135;28;20472;-72
2023/09/21 07:45:32;;;;;;;2.23;1.90;;;19.70;99.90;;;;;;5045373;28;20218;-72
2023/09/21 07:47:58;;;;;;;3.27;2.03;;;19.80;99.90;;;;;;5046925;28;20420;-72
2023/09/21 07:50:26;;;;;;;5.33;2.53;;;19.90;99.90;;;;;;5028822;28;20458;-72
2023/09/21 07:52:56;;;;;;;5.93;2.40;;;19.90;99.90;;;;;;5046845;28;20426;-72
2023/09/21 07:55:22;;;;;;;4.10;2.37;;;19.90;99.90;;;;;;5046949;28;20429;-72
2023/09/21 07:57:48;;;;;;;3.90;2.80;;;19.90;99.90;;;;;;5046880;28;20516;-72
2023/09/21 08:00:15;;;;;;;7.40;2.30;;;19.90;99.90;;;;;;5047599;28;20508;-72
2023/09/21 08:02:41;;;;;;;7.77;2.63;;;19.80;99.90;;;;;;5047118;28;20458;-72
2023/09/21 08:05:06;;;;;;;4.77;3.17;;;19.80;99.90;;;;;;5045389;28;20450;-71
2023/09/21 08:07:33;;;;;;;3.93;2.40;;;19.80;99.90;;;;;;5045457;28;20433;-72
2023/09/21 08:10:01;;;;;;;2.87;2.10;;;19.90;99.90;;;;;;5046745;28;20580;-72
2023/09/21 08:12:27;;;;;;;5.13;2.13;;;20.00;99.90;;;;;;5029314;28;20861;-72
2023/09/21 08:14:53;;;;;;;8.43;2.60;;;20.20;99.90;;;;;;5046681;28;20669;-72
2023/09/21 08:17:19;;;;;;;2.37;1.80;;;20.40;99.90;;;;;;5046724;28;20414;-72
2023/09/21 08:19:45;;;;;;;4.20;2.10;;;20.60;99.90;;;;;;5044814;28;20423;-71
2023/09/21 08:22:11;;;;;;;2.40;1.87;;;20.80;99.90;;;;;;5046577;28;20254;-72
2023/09/21 08:24:36;;;;;;;3.23;1.97;;;21.00;99.90;;;;;;5045139;28;20476;-73
2023/09/21 08:27:03;;;;;;;3.50;2.17;;;21.10;99.90;;;;;;5046696;28;20176;-72
2023/09/21 08:29:29;;;;;;;2.33;2.13;;;21.30;99.90;;;;;;5045025;28;20199;-73
2023/09/21 08:31:55;;;;;;;6.83;2.20;;;21.40;99.90;;;;;;5046577;28;20517;-72
2023/09/21 08:34:21;;;;;;;3.93;2.00;;;21.50;99.90;;;;;;5045024;28;20521;-72
2023/09/21 08:36:47;;;;;;;2.40;2.20;;;21.50;99.90;;;;;;5046368;28;20192;-72
2023/09/21 08:39:12;;;;;;;3.43;2.00;;;21.60;99.90;;;;;;5046167;28;20224;-71
2023/09/21 08:41:47;;;;;;;6.40;2.00;;;21.60;99.90;;;;;;5046430;28;20838;-72
2023/09/21 08:44:13;;;;;;;3.83;1.70;;;21.80;99.90;;;;;;5044780;28;20207;-73
2023/09/21 08:46:40;;;;;;;2.23;1.57;;;21.90;99.90;;;;;;5047078;28;20442;-72
2023/09/21 08:49:07;;;;;;;5.87;2.10;;;22.00;99.90;;;;;;5050296;28;20429;-73
2023/09/21 08:51:38;;;;;;;3.70;2.00;;;22.00;99.90;;;;;;5050271;28;20429;-73
2023/09/21 08:54:06;;;;;;;3.40;2.10;;;22.10;99.90;;;;;;5050172;28;20441;-73
2023/09/21 08:56:33;;;;;;;4.80;1.50;;;22.30;99.90;;;;;;5050251;28;20567;-73
2023/09/21 08:59:00;;;;;;;6.00;2.20;;;22.40;99.90;;;;;;5048535;28;20630;-72
2023/09/21 09:01:27;;;;;;;2.57;2.33;;;22.60;99.90;;;;;;5050223;28;20418;-73
2023/09/21 09:03:53;;;;;;;3.00;2.47;;;22.90;99.90;;;;;;5049994;28;20442;-72
2023/09/21 09:06:19;;;;;;;6.10;2.33;;;23.00;99.90;;;;;;5048644;28;20944;-72
2023/09/21 09:08:46;;;;;;;3.20;1.83;;;23.30;99.90;;;;;;5048285;28;20907;-72
2023/09/21 09:11:40;;;;;;;2.47;1.90;;;23.70;99.90;;;;;;5048636;28;20187;-73
2023/09/21 09:14:16;;;;;;;3.40;1.93;;;24.00;99.90;;;;;;5050043;28;20847;-72
2023/09/21 09:16:43;;;;;;;4.27;2.10;;;24.40;99.90;;;;;;5048334;28;20447;-73
2023/09/21 09:19:11;;;;;;;3.83;2.23;;;24.40;99.90;;;;;;5048072;28;20476;-73
2023/09/21 09:21:37;;;;;;;2.23;1.97;;;24.50;99.90;;;;;;5049779;28;20420;-73
2023/09/21 09:24:04;;;;;;;4.47;2.00;;;24.80;99.90;;;;;;5048142;28;20450;-73
2023/09/21 09:26:32;;;;;;;7.90;2.30;;;25.20;99.90;;;;;;5049717;28;20435;-72
2023/09/21 09:29:06;;;;;;;8.23;2.20;;;25.30;99.90;;;;;;5031735;28;20428;-73
2023/09/21 09:31:34;;;;;;;3.93;2.10;;;25.50;99.90;;;;;;5049626;28;20418;-73
2023/09/21 09:34:01;;;;;;;4.10;2.17;;;25.80;99.90;;;;;;5048197;28;20453;-73
2023/09/21 09:36:27;;;;;;;4.27;1.90;;;25.70;99.90;;;;;;5049539;28;20456;-73
2023/09/21 09:38:52;;;;;;;5.90;2.07;;;26.10;99.90;;;;;;5047908;28;20523;-73
2023/09/21 09:41:18;;;;;;;1.70;1.60;;;26.50;99.90;;;;;;5049940;28;20429;-73
2023/09/21 09:43:50;;;;;;;4.07;1.73;;;27.30;99.90;;;;;;5049465;28;20252;-73
2023/09/21 09:46:30;;;;;;;3.40;2.27;;;27.70;99.90;;;;;;5048022;28;20749;-73
2023/09/21 09:49:02;;;;;;;4.87;2.10;;;27.80;99.90;;;;;;5031502;28;20521;-73
2023/09/21 09:51:40;;;;;;;3.50;2.07;;;27.40;99.90;;;;;;5049393;28;20806;-73
2023/09/21 09:54:09;;;;;;;2.27;2.00;;;26.80;99.90;;;;;;5049414;28;20442;-73
2023/09/21 09:56:40;;;;;;;2.13;1.80;;;26.70;99.90;;;;;;5049052;28;20449;-73
2023/09/21 09:59:08;;;;;;;2.17;1.80;;;26.40;99.90;;;;;;5048028;28;21081;-72
2023/09/21 10:01:37;;;;;;;4.23;2.17;;;26.10;99.90;;;;;;5047332;28;20427;-73
2023/09/21 10:04:05;;;;;;;2.47;2.00;;;25.90;99.90;;;;;;5048922;28;20447;-73
2023/09/21 10:06:34;;;;;;;2.23;2.00;;;25.70;99.90;;;;;;5049087;28;20441;-71
2023/09/21 10:09:00;;;;;;;3.57;2.30;;;25.60;99.90;;;;;;5048999;28;20434;-73
2023/09/21 10:11:27;;;;;;;7.00;1.53;;;25.40;99.90;;;;;;5047318;28;20430;-72
2023/09/21 10:13:54;;;;;;;4.47;2.00;;;25.30;99.90;;;;;;5049158;28;20453;-72
2023/09/21 10:16:20;;;;;;;2.90;2.17;;;25.20;99.90;;;;;;5047394;28;20498;-73
2023/09/21 10:18:53;;;;;;;2.40;1.93;;;25.20;99.90;;;;;;5048660;28;20970;-72
2023/09/21 10:21:31;;;;;;;6.73;2.37;;;25.40;99.90;;;;;;5048804;28;20441;-72
2023/09/21 10:24:18;;;;;;;2.73;1.60;;;25.40;99.90;;;;;;5048716;28;20934;-73
2023/09/21 10:26:51;;;;;;;6.40;2.03;;;25.50;99.90;;;;;;5049416;28;20445;-73
2023/09/21 10:29:42;;;;;;;3.03;1.97;;;25.80;99.90;;;;;;5047653;28;20475;-73
2023/09/21 10:32:07;;;;;;;2.50;1.90;;;26.10;99.90;;;;;;5047908;28;20994;-73
2023/09/21 10:34:33;;;;;;;2.23;1.97;;;26.50;99.90;;;;;;5048522;28;20800;-73
2023/09/21 10:37:06;;;;;;;2.30;1.97;;;26.90;99.90;;;;;;5048683;28;20202;-72
2023/09/21 10:39:32;;;;;;;2.07;1.87;;;27.50;99.90;;;;;;5048393;28;20298;-73
2023/09/21 10:42:04;;;;;;;4.60;1.90;;;28.30;99.90;;;;;;5048078;28;20518;-73
2023/09/21 10:44:59;;;;;;;2.90;2.07;;;28.10;99.90;;;;;;5048340;28;20211;-75
2023/09/21 10:47:38;;;;;;;5.43;2.00;;;28.30;99.90;;;;;;5046431;28;20418;-74
2023/09/21 10:50:11;;;;;;;7.27;2.40;;;28.50;99.90;;;;;;5048197;28;20425;-74
2023/09/21 10:52:45;;;;;;;3.30;1.67;;;28.30;99.90;;;;;;5046864;28;20429;-73
2023/09/21 10:55:16;;;;;;;4.33;1.93;;;27.80;99.90;;;;;;5047480;28;20791;-73
2023/09/21 10:57:44;;;;;;;2.57;1.50;;;27.70;99.90;;;;;;5048386;28;20453;-73
2023/09/21 11:00:25;;;;;;;2.40;1.37;;;27.50;99.90;;;;;;5047048;28;20473;-72
2023/09/21 11:02:53;;;;;;;4.73;1.53;;;27.50;99.90;;;;;;5046883;28;20943;-71
2023/09/21 11:05:19;;;;;;;2.77;1.30;;;28.10;99.90;;;;;;5047341;28;20606;-73
2023/09/21 11:07:47;;;;;;;2.07;1.10;;;28.30;99.90;;;;;;5048594;28;20467;-74
2023/09/21 11:10:14;;;;;;;2.90;1.20;;;29.00;99.90;;;;;;5047058;28;20555;-72
2023/09/21 11:12:40;;;;;;;5.77;1.33;;;29.50;99.90;;;;;;5048599;28;20426;-73
2023/09/21 11:15:12;;;;;;;1.20;1.10;;;29.90;99.90;;;;;;5048500;28;20446;-74
2023/09/21 11:17:40;;;;;;;1.73;1.00;;;29.30;98.00;;;;;;5048364;28;20825;-75
2023/09/21 11:20:08;;;;;;;4.30;1.27;;;28.80;98.50;;;;;;5048192;28;21085;-72
2023/09/21 11:22:34;;;;;;;2.50;1.10;;;28.80;97.80;;;;;;5047974;28;20426;-72
2023/09/21 11:25:00;;;;;;;2.10;1.13;;;28.90;98.00;;;;;;5047847;28;20438;-72
2023/09/21 11:27:26;;;;;;;6.07;1.20;;;29.30;99.20;;;;;;5047692;28;20721;-73
2023/09/21 11:29:53;;;;;;;3.47;2.10;;;29.60;98.40;;;;;;5047706;28;20232;-74
2023/09/21 11:32:19;;;;;;;1.77;1.60;;;29.90;97.10;;;;;;5047815;28;20427;-72
2023/09/21 11:34:47;;;;;;;2.00;1.23;;;29.90;97.40;;;;;;5047229;28;20450;-72
2023/09/21 11:37:13;;;;;;;3.03;1.10;;;30.30;97.30;;;;;;5046029;28;20422;-73
2023/09/21 11:39:46;;;;;;;2.23;1.10;;;30.30;96.00;;;;;;5047199;28;20523;-77
2023/09/21 11:42:12;;;;;;;9.83;1.13;;;30.20;96.10;;;;;;5047333;28;20416;-75
2023/09/21 11:44:38;;;;;;;1.20;1.03;;;30.50;97.30;;;;;;5047199;28;20477;-76
2023/09/21 11:47:11;;;;;;;1.47;0.80;;;30.50;96.90;;;;;;5047184;28;20427;-76
2023/09/21 11:49:40;;;;;;;3.23;0.90;;;30.70;95.60;;;;;;5047373;28;20431;-76
2023/09/21 11:52:06;;;;;;;1.30;1.07;;;30.50;93.20;;;;;;5046997;28;20418;-76
2023/09/21 11:54:35;;;;;;;1.23;1.13;;;30.40;93.20;;;;;;5046973;28;20446;-76
2023/09/21 11:57:03;;;;;;;2.07;1.20;;;30.70;93.40;;;;;;5047444;28;20442;-76
2023/09/21 11:59:39;;;;;;;4.70;1.07;;;30.80;93.90;;;;;;5046932;28;20990;-76
2023/09/21 12:02:16;;;;;;;1.07;0.97;;;30.40;93.50;;;;;;5046861;28;20428;-76
2023/09/21 12:04:43;;;;;;;1.93;1.10;;;29.60;92.40;;;;;;5047010;28;20476;-76
2023/09/21 12:07:09;;;;;;;1.53;0.90;;;29.10;93.50;;;;;;5046777;28;20418;-75
2023/09/21 12:09:42;;;;;;;1.73;0.90;;;29.00;94.20;;;;;;5046913;28;20434;-75
2023/09/21 12:12:13;;;;;;;1.13;0.80;;;28.70;93.00;;;;;;5046856;28;20855;-75
2023/09/21 12:14:40;;;;;;;3.67;0.90;;;28.60;93.30;;;;;;5045296;28;20488;-75
2023/09/21 12:17:11;;;;;;;5.03;0.63;;;28.30;92.70;;;;;;5046596;28;20433;-77
2023/09/21 12:19:38;;;;;;;1.43;0.70;;;28.20;93.00;;;;;;5045391;28;20478;-77
2023/09/21 12:22:05;;;;;;;1.07;0.90;;;28.20;94.10;;;;;;5044644;28;20426;-76
2023/09/21 12:24:35;;;;;;;1.77;1.00;;;28.20;93.00;;;;;;5045169;28;21071;-75
2023/09/21 12:27:07;;;;;;;1.93;0.67;;;28.00;93.80;;;;;;5046745;28;20430;-76
2023/09/21 12:29:33;;;;;;;2.60;0.80;;;28.00;93.10;;;;;;5029629;28;20443;-76
2023/09/21 12:32:04;;;;;;;1.30;1.07;;;28.20;94.10;;;;;;5045718;28;20441;-76
2023/09/21 12:34:31;;;;;;;1.00;0.87;;;28.20;94.90;;;;;;5047292;28;21032;-76
2023/09/21 12:36:58;;;;;;;0.90;0.60;;;28.10;95.40;;;;;;5045728;28;20426;-76
2023/09/21 12:39:26;;;;;;;1.07;0.90;;;28.10;94.90;;;;;;5046779;28;20560;-76
2023/09/21 12:41:51;;;;;;;1.73;1.20;;;27.90;95.10;;;;;;5029168;28;20481;-76
2023/09/21 12:44:18;;;;;;;2.27;1.10;;;27.50;94.80;;;;;;5045354;28;20442;-75
2023/09/21 12:46:44;;;;;;;1.40;0.97;;;27.40;94.30;;;;;;5046628;28;20267;-77
2023/09/21 12:49:10;;;;;;;0.90;0.70;;;27.30;95.60;;;;;;5045120;28;20555;-76
2023/09/21 12:51:36;;;;;;;1.10;0.80;;;27.20;94.90;;;;;;5046404;28;20534;-76
2023/09/21 12:54:02;;;;;;;2.10;1.00;;;27.30;96.00;;;;;;5046407;28;20449;-76
2023/09/21 12:56:28;;;;;;;1.67;1.00;;;27.30;97.20;;;;;;5046394;28;20632;-75
2023/09/21 12:58:55;;;;;;;2.00;1.00;;;27.30;96.40;;;;;;5046979;28;20211;-75
2023/09/21 13:01:22;;;;;;;1.43;0.97;;;27.50;97.10;;;;;;5045868;28;20196;-76